Taftsville, Vermont
Current Conditions -  °F | °C
As of 11:53 PM on Wednesday 22 Oct 2014 (Local Time) from KLEB Reporting Station
Overcast Overcast  
Wind Chill: 50°   Ceiling: 2500
Heat Index: 50°   Visibility: 10mi
Dew Point: 44°   Wind: 10mph
Humidity: 80%   Direction: 360°N
Pressure: 29.96"   Gusts: NA
Location:  43.63°N, 72.47°W
Report Text: KLEB 230353Z AUTO 36009KT 10SM OVC025 10/07 A2996 RMK AO2 SLP144 T01000067
Loading
Personal Weather Stations






























Interactive Weather Map
Tropical Storm Tracking
New forecast layout! Learn more

10-Day Weather Forecast

Advertisements
Track Severe Weather on mobile